createdAt,value
2022-10-20T00:01:08.438Z,6.37
2022-10-20T00:03:35.125Z,6.26
2022-10-20T00:06:09.050Z,6.25
2022-10-20T00:08:35.698Z,6.21
2022-10-20T00:11:02.387Z,6.17
2022-10-20T00:13:28.932Z,6.12
2022-10-20T00:15:56.145Z,6.10
2022-10-20T00:18:23.991Z,6.09
2022-10-20T00:20:51.403Z,6.04
2022-10-20T00:23:18.072Z,6.04
2022-10-20T00:25:44.691Z,6.08
2022-10-20T00:28:11.251Z,6.06
2022-10-20T00:30:38.495Z,6.04
2022-10-20T00:33:06.203Z,6.01
2022-10-20T00:35:33.997Z,5.97
2022-10-20T00:38:00.486Z,5.97
2022-10-20T00:40:27.019Z,5.93
2022-10-20T00:42:53.508Z,5.91
2022-10-20T00:45:22.410Z,5.94
2022-10-20T00:48:08.361Z,5.90
2022-10-20T00:50:41.688Z,5.78
2022-10-20T00:53:08.599Z,5.74
2022-10-20T00:55:40.134Z,5.70
2022-10-20T00:58:07.135Z,5.66
2022-10-20T01:00:33.944Z,5.61
2022-10-20T01:03:02.202Z,5.56
2022-10-20T01:05:28.954Z,5.53
2022-10-20T01:07:55.450Z,5.49
2022-10-20T01:10:25.340Z,5.47
2022-10-20T01:13:00.669Z,5.42
2022-10-20T01:15:45.987Z,5.37
2022-10-20T01:18:17.822Z,5.34
2022-10-20T01:21:16.675Z,5.33
2022-10-20T01:24:01.511Z,5.26
2022-10-20T01:26:41.254Z,5.23
2022-10-20T01:29:40.178Z,5.18
2022-10-20T01:32:15.646Z,5.13
2022-10-20T01:35:05.486Z,5.12
2022-10-20T01:37:49.808Z,5.14
2022-10-20T01:40:29.166Z,5.20
2022-10-20T01:43:01.435Z,5.15
2022-10-20T01:45:32.837Z,5.14
2022-10-20T01:48:02.574Z,5.00
2022-10-20T01:50:30.286Z,4.92
2022-10-20T01:52:58.167Z,4.89
2022-10-20T01:55:24.930Z,4.86
2022-10-20T01:58:20.981Z,4.83
2022-10-20T02:00:49.427Z,4.82
2022-10-20T02:03:21.600Z,4.84
2022-10-20T02:06:26.701Z,4.77
2022-10-20T02:08:57.242Z,4.80
2022-10-20T02:11:48.481Z,4.75
2022-10-20T02:14:18.687Z,4.74
2022-10-20T02:16:49.325Z,4.65
2022-10-20T02:19:18.803Z,4.57
2022-10-20T02:21:46.833Z,4.51
2022-10-20T02:24:16.000Z,4.50
2022-10-20T02:26:44.184Z,4.52
2022-10-20T02:29:18.289Z,4.52
2022-10-20T02:31:45.108Z,4.43
2022-10-20T02:34:12.583Z,4.39
2022-10-20T02:36:42.866Z,4.39
2022-10-20T02:39:09.926Z,4.36
2022-10-20T02:41:37.533Z,4.41
2022-10-20T02:44:04.369Z,4.42
2022-10-20T02:46:30.965Z,4.32
2022-10-20T02:48:57.511Z,4.32
2022-10-20T02:51:24.065Z,4.33
2022-10-20T02:53:50.620Z,4.41
2022-10-20T02:56:17.159Z,4.42
2022-10-20T02:58:43.683Z,4.46
2022-10-20T03:01:10.268Z,4.40
2022-10-20T03:03:36.910Z,4.50
2022-10-20T03:06:15.509Z,4.48
2022-10-20T03:08:42.898Z,4.36
2022-10-20T03:11:09.802Z,4.38
2022-10-20T03:13:36.475Z,4.28
2022-10-20T03:16:03.101Z,4.28
2022-10-20T03:18:29.631Z,4.20
2022-10-20T03:20:56.144Z,4.16
2022-10-20T03:23:22.691Z,4.00
2022-10-20T03:25:49.200Z,4.00
2022-10-20T03:28:15.716Z,3.87
2022-10-20T03:30:42.271Z,3.85
2022-10-20T03:33:08.762Z,3.79
2022-10-20T03:35:35.258Z,3.79
2022-10-20T03:38:01.729Z,3.57
2022-10-20T03:40:28.289Z,3.36
2022-10-20T03:42:54.753Z,3.29
2022-10-20T03:45:21.247Z,3.28
2022-10-20T03:47:47.898Z,3.23
2022-10-20T03:50:14.448Z,3.15
2022-10-20T03:52:41.012Z,3.10
2022-10-20T03:55:07.928Z,3.07
2022-10-20T03:57:34.751Z,3.07
2022-10-20T04:00:01.434Z,2.92
2022-10-20T04:02:36.310Z,2.87
2022-10-20T04:05:03.924Z,2.87
2022-10-20T04:07:30.443Z,2.89
2022-10-20T04:09:57.053Z,2.94
2022-10-20T04:12:24.385Z,2.88
2022-10-20T04:14:51.142Z,2.80
2022-10-20T04:17:19.369Z,2.75
2022-10-20T04:19:46.530Z,2.70
2022-10-20T04:22:13.617Z,2.74
2022-10-20T04:24:41.846Z,2.74
2022-10-20T04:27:08.446Z,2.74
2022-10-20T04:29:35.082Z,2.75
2022-10-20T04:32:01.668Z,2.61
2022-10-20T04:34:29.323Z,2.57
2022-10-20T04:36:55.871Z,2.52
2022-10-20T04:39:22.432Z,2.46
2022-10-20T04:41:48.991Z,2.36
2022-10-20T04:44:15.696Z,2.34
2022-10-20T04:46:42.231Z,2.27
2022-10-20T04:49:09.040Z,2.27
2022-10-20T04:51:36.205Z,2.25
2022-10-20T04:54:02.831Z,2.18
2022-10-20T04:56:31.198Z,2.12
2022-10-20T04:58:59.246Z,2.10
2022-10-20T05:01:28.639Z,2.00
2022-10-20T05:03:55.254Z,2.01
2022-10-20T05:06:27.557Z,1.96
2022-10-20T05:08:57.878Z,1.94
2022-10-20T05:11:26.247Z,1.93
2022-10-20T05:13:53.068Z,1.91
2022-10-20T05:16:20.099Z,1.91
2022-10-20T05:18:48.459Z,1.90
2022-10-20T05:21:20.820Z,1.92
2022-10-20T05:23:47.631Z,1.96
2022-10-20T05:26:18.722Z,2.05
2022-10-20T05:28:47.653Z,2.15
2022-10-20T05:31:15.662Z,2.16
2022-10-20T05:33:47.610Z,2.14
2022-10-20T05:36:19.337Z,2.15
2022-10-20T05:38:48.930Z,2.26
2022-10-20T05:41:17.997Z,2.32
2022-10-20T05:43:57.108Z,2.36
2022-10-20T05:46:25.409Z,2.40
2022-10-20T05:48:57.460Z,2.48
2022-10-20T05:51:26.670Z,2.57
2022-10-20T05:53:55.851Z,2.59
2022-10-20T05:56:23.046Z,2.64
2022-10-20T05:58:49.827Z,2.71
2022-10-20T06:01:20.713Z,2.80
2022-10-20T06:03:52.143Z,2.85
2022-10-20T06:06:21.499Z,2.90
2022-10-20T06:08:48.741Z,2.98
2022-10-20T06:11:15.760Z,3.00
2022-10-20T06:13:42.458Z,3.11
2022-10-20T06:16:19.619Z,3.17
2022-10-20T06:18:46.154Z,3.27
2022-10-20T06:21:24.589Z,3.38
2022-10-20T06:23:51.703Z,3.47
2022-10-20T06:26:23.487Z,3.58
2022-10-20T06:28:58.641Z,3.67
2022-10-20T06:31:30.672Z,3.76
2022-10-20T06:33:58.187Z,3.86
2022-10-20T06:36:25.961Z,3.95
2022-10-20T06:38:57.430Z,4.06
2022-10-20T06:41:25.438Z,4.15
2022-10-20T06:43:59.366Z,4.27
2022-10-20T06:46:30.528Z,4.42
2022-10-20T06:49:00.020Z,4.54
2022-10-20T06:51:26.541Z,4.65
2022-10-20T06:53:53.082Z,4.79
2022-10-20T06:56:24.756Z,4.96
2022-10-20T06:58:55.860Z,5.09
2022-10-20T07:01:36.171Z,5.21
2022-10-20T07:04:06.220Z,5.36
2022-10-20T07:06:39.082Z,5.51
2022-10-20T07:09:08.459Z,5.64
2022-10-20T07:11:36.062Z,5.77
2022-10-20T07:14:04.217Z,5.90
2022-10-20T07:16:33.228Z,6.03
2022-10-20T07:19:00.903Z,6.17
2022-10-20T07:21:32.469Z,6.33
2022-10-20T07:24:04.101Z,6.50
2022-10-20T07:26:33.486Z,6.66
2022-10-20T07:29:01.480Z,6.87
2022-10-20T07:31:31.327Z,7.10
2022-10-20T07:34:13.714Z,7.34
2022-10-20T07:36:49.363Z,7.54
2022-10-20T07:39:16.811Z,7.69
2022-10-20T07:41:47.784Z,7.80
2022-10-20T07:44:14.972Z,7.97
2022-10-20T07:46:41.844Z,8.16
2022-10-20T07:51:54.842Z,8.60
2022-10-20T07:54:21.634Z,8.81
2022-10-20T07:56:49.319Z,8.99
2022-10-20T07:59:16.023Z,9.10
2022-10-20T08:01:42.742Z,9.21
2022-10-20T08:04:09.301Z,9.36
2022-10-20T08:06:35.801Z,9.52
2022-10-20T08:09:02.402Z,9.69
2022-10-20T08:11:29.079Z,9.79
2022-10-20T08:13:55.735Z,9.89
2022-10-20T08:16:24.074Z,9.98
2022-10-20T08:21:22.820Z,10.22
2022-10-20T08:23:49.890Z,10.41
2022-10-20T08:26:24.479Z,10.58
2022-10-20T08:28:52.055Z,10.77
2022-10-20T08:31:18.802Z,10.96
2022-10-20T08:33:50.036Z,11.08
2022-10-20T08:36:18.779Z,11.11
2022-10-20T08:38:45.749Z,11.21
2022-10-20T08:41:21.145Z,11.32
2022-10-20T08:43:50.251Z,11.50
2022-10-20T08:48:51.487Z,11.67
2022-10-20T08:51:21.402Z,11.80
2022-10-20T08:53:51.757Z,12.01
2022-10-20T08:56:22.875Z,12.24
2022-10-20T08:58:49.615Z,12.45
2022-10-20T09:01:28.191Z,12.40
2022-10-20T09:04:19.254Z,12.39
2022-10-20T09:06:50.679Z,12.51
2022-10-20T09:09:20.721Z,12.76
2022-10-20T09:11:48.127Z,12.96
2022-10-20T09:14:16.688Z,13.14
2022-10-20T09:16:59.769Z,13.44
2022-10-20T09:19:28.233Z,13.61
2022-10-20T09:22:06.844Z,13.77
2022-10-20T09:24:35.692Z,13.91
2022-10-20T09:27:20.693Z,14.10
2022-10-20T09:29:47.362Z,14.35
2022-10-20T09:35:28.750Z,14.86
2022-10-20T09:38:04.627Z,15.29
2022-10-20T09:40:32.267Z,15.71
2022-10-20T09:43:09.864Z,16.02
2022-10-20T09:45:39.247Z,15.86
2022-10-20T09:48:19.543Z,16.04
2022-10-20T09:50:50.685Z,16.48
2022-10-20T09:53:20.743Z,17.14
2022-10-20T09:55:49.716Z,17.57
2022-10-20T09:58:42.101Z,17.85
2022-10-20T10:01:18.448Z,18.23
2022-10-20T10:03:47.802Z,18.67
2022-10-20T10:06:33.042Z,19.11
2022-10-20T10:09:02.055Z,19.62
2022-10-20T10:11:37.478Z,20.11
2022-10-20T10:14:05.369Z,20.56
2022-10-20T10:16:43.122Z,21.23
2022-10-20T10:19:18.033Z,21.38
2022-10-20T10:21:53.234Z,21.52
2022-10-20T10:24:28.934Z,21.46
2022-10-20T10:26:57.044Z,21.10
2022-10-20T10:29:35.359Z,21.56
2022-10-20T10:32:12.552Z,21.43
2022-10-20T10:35:09.855Z,21.97
2022-10-20T10:37:42.583Z,22.48
2022-10-20T10:40:16.212Z,23.37
2022-10-20T10:43:03.665Z,23.97
2022-10-20T10:45:43.755Z,23.86
2022-10-20T10:48:28.524Z,24.69
2022-10-20T10:51:01.241Z,24.57
2022-10-20T10:54:00.006Z,24.37
2022-10-20T10:56:49.669Z,24.76
2022-10-20T10:59:31.155Z,25.47
2022-10-20T11:02:19.439Z,25.76
2022-10-20T11:05:07.282Z,25.59
2022-10-20T11:07:54.877Z,24.83
2022-10-20T11:10:27.761Z,24.67
2022-10-20T11:13:27.181Z,23.70
2022-10-20T11:16:31.416Z,24.58
2022-10-20T11:19:47.906Z,25.05
2022-10-20T11:22:37.448Z,24.99
2022-10-20T11:25:36.081Z,23.89
2022-10-20T11:28:22.511Z,23.92
2022-10-20T11:30:50.174Z,23.53
2022-10-20T11:33:23.120Z,24.61
2022-10-20T11:35:54.256Z,24.15
2022-10-20T11:38:31.344Z,24.70
2022-10-20T11:41:12.892Z,24.98
2022-10-20T11:43:57.325Z,25.16
2022-10-20T11:46:46.082Z,25.68
2022-10-20T11:49:12.686Z,25.90
2022-10-20T11:51:51.016Z,25.62
2022-10-20T11:54:29.514Z,24.14
2022-10-20T11:56:58.929Z,24.98
2022-10-20T11:59:35.107Z,25.56
2022-10-20T12:02:22.859Z,25.60
2022-10-20T12:05:23.350Z,25.23
2022-10-20T12:08:24.778Z,26.16
2022-10-20T12:11:05.422Z,26.42
2022-10-20T12:13:48.005Z,25.45
2022-10-20T12:16:52.425Z,23.89
2022-10-20T12:19:30.851Z,22.02
2022-10-20T12:22:13.814Z,22.99
2022-10-20T12:25:03.392Z,24.12
2022-10-20T12:27:30.604Z,25.31
2022-10-20T12:30:06.189Z,25.53
2022-10-20T12:32:57.457Z,24.72
2022-10-20T12:35:23.890Z,24.43
2022-10-20T12:38:02.446Z,25.01
2022-10-20T12:40:41.034Z,25.38
2022-10-20T12:43:25.532Z,26.30
2022-10-20T12:45:56.807Z,26.33
2022-10-20T12:48:24.519Z,25.37
2022-10-20T12:50:52.267Z,25.68
2022-10-20T12:53:29.274Z,26.83
2022-10-20T12:56:04.028Z,27.32
2022-10-20T12:59:19.670Z,27.16
2022-10-20T13:02:10.954Z,27.10
2022-10-20T13:04:52.716Z,26.13
2022-10-20T13:07:47.792Z,26.29
2022-10-20T13:10:32.345Z,26.53
2022-10-20T13:13:01.582Z,26.58
2022-10-20T13:15:43.217Z,26.80
2022-10-20T13:18:12.882Z,27.26
2022-10-20T13:20:43.940Z,27.22
2022-10-20T13:23:16.168Z,27.16
2022-10-20T13:25:52.679Z,27.37
2022-10-20T13:28:23.275Z,27.58
2022-10-20T13:30:52.607Z,27.61
2022-10-20T13:36:39.615Z,27.13
2022-10-20T13:39:27.831Z,26.29
2022-10-20T13:42:27.911Z,26.53
2022-10-20T13:45:24.591Z,25.85
2022-10-20T13:48:01.906Z,24.91
2022-10-20T13:50:36.614Z,25.17
2022-10-20T13:53:10.291Z,25.24
2022-10-20T13:55:59.858Z,25.05
2022-10-20T13:58:27.131Z,24.96
2022-10-20T14:01:03.089Z,24.32
2022-10-20T14:03:31.265Z,24.43
2022-10-20T14:05:59.742Z,24.85
2022-10-20T14:08:26.560Z,25.05
2022-10-20T14:10:59.621Z,25.34
2022-10-20T14:13:30.441Z,25.21
2022-10-20T14:15:59.050Z,25.02
2022-10-20T14:18:31.661Z,25.01
2022-10-20T14:21:05.549Z,25.15
2022-10-20T14:23:37.107Z,25.34
2022-10-20T14:26:07.596Z,24.48
2022-10-20T14:28:36.391Z,24.67
2022-10-20T14:31:03.328Z,24.17
2022-10-20T14:33:30.876Z,23.68
2022-10-20T14:35:59.496Z,23.49
2022-10-20T14:38:37.693Z,22.89
2022-10-20T14:41:07.059Z,22.57
2022-10-20T14:43:43.846Z,22.17
2022-10-20T14:46:12.879Z,22.08
2022-10-20T14:48:45.560Z,21.92
2022-10-20T14:52:00.503Z,20.62
2022-10-20T14:54:31.352Z,20.60
2022-10-20T14:57:09.922Z,20.15
2022-10-20T15:00:03.784Z,19.50
2022-10-20T15:02:39.162Z,19.29
2022-10-20T15:05:44.351Z,18.65
2022-10-20T15:08:25.846Z,18.36
2022-10-20T15:10:52.973Z,18.39
2022-10-20T15:13:26.534Z,18.14
2022-10-20T15:15:54.686Z,18.08
2022-10-20T15:18:23.554Z,17.49
2022-10-20T15:20:51.997Z,17.33
2022-10-20T15:23:27.219Z,17.35
2022-10-20T15:26:09.539Z,17.31
2022-10-20T15:28:47.500Z,16.95
2022-10-20T15:31:13.918Z,16.62
2022-10-20T15:33:41.329Z,16.17
2022-10-20T15:36:21.180Z,15.78
2022-10-20T15:38:51.232Z,15.52
2022-10-20T15:41:26.952Z,15.22
2022-10-20T15:43:53.917Z,15.08
2022-10-20T15:46:20.955Z,15.22
2022-10-20T15:48:48.015Z,14.97
2022-10-20T15:51:24.789Z,14.68
2022-10-20T15:53:51.407Z,14.45
2022-10-20T15:56:18.447Z,14.13
2022-10-20T15:58:45.484Z,13.95
2022-10-20T16:01:13.736Z,13.67
2022-10-20T16:03:43.228Z,13.07
2022-10-20T16:06:13.477Z,13.01
2022-10-20T16:08:41.313Z,12.85
2022-10-20T16:11:08.931Z,12.53
2022-10-20T16:13:36.050Z,12.53
2022-10-20T16:16:02.540Z,12.41
2022-10-20T16:18:29.081Z,12.34
2022-10-20T16:20:58.626Z,12.29
2022-10-20T16:23:25.352Z,12.08
2022-10-20T16:25:52.401Z,11.77
2022-10-20T16:28:19.164Z,11.38
2022-10-20T16:30:45.725Z,11.10
2022-10-20T16:33:12.287Z,11.02
2022-10-20T16:35:45.130Z,10.76
2022-10-20T16:38:11.687Z,10.78
2022-10-20T16:40:38.263Z,10.61
2022-10-20T16:43:04.870Z,10.38
2022-10-20T16:45:31.660Z,10.17
2022-10-20T16:47:58.162Z,10.06
2022-10-20T16:50:24.725Z,9.97
2022-10-20T16:52:51.194Z,9.87
2022-10-20T16:55:17.763Z,9.90
2022-10-20T16:57:44.271Z,9.74
2022-10-20T17:00:11.311Z,9.34
2022-10-20T17:02:38.173Z,9.32
2022-10-20T17:05:08.258Z,9.41
2022-10-20T17:07:37.317Z,9.32
2022-10-20T17:10:04.376Z,9.05
2022-10-20T17:12:30.998Z,8.73
2022-10-20T17:14:57.526Z,8.57
2022-10-20T17:17:23.998Z,8.56
2022-10-20T17:19:50.510Z,8.49
2022-10-20T17:22:16.998Z,8.42
2022-10-20T17:24:43.573Z,8.27
2022-10-20T17:27:11.101Z,8.11
2022-10-20T17:29:37.647Z,7.88
2022-10-20T17:32:04.379Z,7.68
2022-10-20T17:34:30.964Z,7.72
2022-10-20T17:36:57.516Z,7.64
2022-10-20T17:39:24.727Z,7.69
2022-10-20T17:41:51.219Z,7.66
2022-10-20T17:44:17.693Z,7.61
2022-10-20T17:46:44.235Z,7.44
2022-10-20T17:49:10.746Z,7.21
2022-10-20T17:51:37.516Z,7.25
2022-10-20T17:54:04.926Z,7.22
2022-10-20T17:56:36.594Z,7.18
2022-10-20T17:59:05.365Z,7.05
2022-10-20T18:01:34.723Z,7.04
2022-10-20T18:04:06.098Z,7.12
2022-10-20T18:06:34.725Z,6.96
2022-10-20T18:09:07.154Z,6.75
2022-10-20T18:11:35.084Z,6.62
2022-10-20T18:14:02.147Z,6.68
2022-10-20T18:16:31.479Z,6.66
2022-10-20T18:18:59.649Z,6.58
2022-10-20T18:21:27.677Z,6.49
2022-10-20T18:23:59.183Z,6.23
2022-10-20T18:26:25.895Z,6.28
2022-10-20T18:28:52.732Z,6.25
2022-10-20T18:31:24.633Z,6.15
2022-10-20T18:33:57.265Z,5.99
2022-10-20T18:36:25.231Z,5.87
2022-10-20T18:38:53.466Z,5.98
2022-10-20T18:41:23.215Z,6.00
2022-10-20T18:43:57.817Z,6.06
2022-10-20T18:46:26.127Z,5.89
2022-10-20T18:48:52.950Z,5.82
2022-10-20T18:51:19.498Z,5.82
2022-10-20T18:53:46.780Z,5.60
2022-10-20T18:56:21.134Z,5.45
2022-10-20T18:58:55.859Z,5.38
2022-10-20T19:01:23.744Z,5.22
2022-10-20T19:03:53.093Z,5.19
2022-10-20T19:06:22.044Z,5.13
2022-10-20T19:08:52.895Z,5.10
2022-10-20T19:11:20.705Z,4.96
2022-10-20T19:13:47.765Z,4.86
2022-10-20T19:16:19.110Z,4.87
2022-10-20T19:18:47.683Z,4.89
2022-10-20T19:21:14.590Z,4.95
2022-10-20T19:23:44.056Z,5.05
2022-10-20T19:26:23.375Z,4.87
2022-10-20T19:28:58.476Z,4.86
2022-10-20T19:31:34.209Z,4.93
2022-10-20T19:34:05.690Z,4.92
2022-10-20T19:36:33.031Z,4.88
2022-10-20T19:38:59.567Z,4.71
2022-10-20T19:41:26.861Z,4.72
2022-10-20T19:43:53.718Z,4.63
2022-10-20T19:46:21.758Z,4.63
2022-10-20T19:48:48.806Z,4.54
2022-10-20T19:51:16.959Z,4.47
2022-10-20T19:53:44.150Z,4.32
2022-10-20T19:56:11.007Z,4.23
2022-10-20T19:58:41.431Z,4.20
2022-10-20T20:01:11.225Z,4.11
2022-10-20T20:03:37.831Z,4.20
2022-10-20T20:06:07.987Z,4.24
2022-10-20T20:08:35.498Z,4.22
2022-10-20T20:11:04.338Z,4.12
2022-10-20T20:13:31.908Z,4.05
2022-10-20T20:16:06.986Z,4.00
2022-10-20T20:18:34.779Z,3.92
2022-10-20T20:21:03.793Z,3.92
2022-10-20T20:23:41.280Z,3.79
2022-10-20T20:26:17.528Z,3.85
2022-10-20T20:28:44.060Z,3.88
2022-10-20T20:31:12.164Z,3.86
2022-10-20T20:33:38.769Z,3.73
2022-10-20T20:36:07.889Z,3.76
2022-10-20T20:38:36.643Z,3.66
2022-10-20T20:41:10.232Z,3.60
2022-10-20T20:43:37.495Z,3.56
2022-10-20T20:46:09.293Z,3.56
2022-10-20T20:48:36.635Z,3.55
2022-10-20T20:51:04.898Z,3.43
2022-10-20T20:56:12.024Z,3.28
2022-10-20T20:58:38.976Z,3.24
2022-10-20T21:01:12.695Z,3.28
2022-10-20T21:03:40.132Z,3.13
2022-10-20T21:06:08.684Z,3.20
2022-10-20T21:08:39.733Z,3.19
2022-10-20T21:11:07.318Z,3.14
2022-10-20T21:13:35.684Z,3.11
2022-10-20T21:16:13.725Z,3.12
2022-10-20T21:18:42.452Z,3.20
2022-10-20T21:23:43.428Z,3.02
2022-10-20T21:26:11.520Z,2.89
2022-10-20T21:28:38.662Z,2.94
2022-10-20T21:31:11.282Z,2.89
2022-10-20T21:33:38.537Z,2.83
2022-10-20T21:36:07.780Z,2.72
2022-10-20T21:38:35.446Z,2.76
2022-10-20T21:41:06.901Z,2.84
2022-10-20T21:43:35.135Z,2.85
2022-10-20T21:46:18.418Z,2.84
2022-10-20T21:48:46.309Z,2.78
2022-10-20T21:51:15.953Z,2.71
2022-10-20T21:53:43.097Z,2.62
2022-10-20T21:56:10.299Z,2.63
2022-10-20T21:58:37.868Z,2.61
2022-10-20T22:01:10.401Z,2.49
2022-10-20T22:03:36.993Z,2.47
2022-10-20T22:06:03.954Z,2.45
2022-10-20T22:08:30.554Z,2.44
2022-10-20T22:10:57.099Z,2.41
2022-10-20T22:13:23.609Z,2.39
2022-10-20T22:15:50.102Z,2.30
2022-10-20T22:18:16.651Z,2.35
2022-10-20T22:20:43.131Z,2.35
2022-10-20T22:23:09.611Z,2.33
2022-10-20T22:25:37.903Z,2.29
2022-10-20T22:28:05.686Z,2.31
2022-10-20T22:30:32.998Z,2.28
2022-10-20T22:32:59.629Z,2.26
2022-10-20T22:35:26.659Z,2.24
2022-10-20T22:37:53.447Z,2.22
2022-10-20T22:40:20.280Z,2.19
2022-10-20T22:42:46.818Z,2.18
2022-10-20T22:45:13.370Z,2.14
2022-10-20T22:47:39.882Z,2.08
2022-10-20T22:50:06.944Z,1.97
2022-10-20T22:52:33.459Z,1.97
2022-10-20T22:54:59.950Z,1.95
2022-10-20T22:57:26.442Z,1.94
2022-10-20T22:59:53.028Z,1.98
2022-10-20T23:02:19.527Z,2.00
2022-10-20T23:04:46.015Z,1.98
2022-10-20T23:07:12.667Z,2.02
2022-10-20T23:09:39.270Z,2.05
2022-10-20T23:12:05.752Z,2.09
2022-10-20T23:14:32.472Z,2.07
2022-10-20T23:16:59.031Z,1.97
2022-10-20T23:19:25.703Z,1.99
2022-10-20T23:21:52.250Z,1.97
2022-10-20T23:24:18.843Z,2.00
2022-10-20T23:26:45.364Z,1.92
2022-10-20T23:29:11.942Z,1.87
2022-10-20T23:31:38.543Z,1.84
2022-10-20T23:34:05.171Z,1.86
2022-10-20T23:36:34.273Z,1.89
2022-10-20T23:39:03.686Z,1.87
2022-10-20T23:41:30.261Z,1.80
2022-10-20T23:43:56.766Z,1.72
2022-10-20T23:46:24.643Z,1.76
2022-10-20T23:48:51.150Z,1.69
2022-10-20T23:51:17.673Z,1.68
2022-10-20T23:53:44.203Z,1.72
2022-10-20T23:56:10.741Z,1.77
2022-10-20T23:58:37.289Z,1.77
